TimeEST,TemperatureF,Dew PointF,Humidity,Sea Level PressureIn,VisibilityMPH,Wind Direction,Wind SpeedMPH,Gust SpeedMPH,PrecipitationIn,Events,Conditions,WindDirDegrees,DateUTC
12:53 AM,12.9,-5.1,45,30.22,10.0,North,9.2,-,N/A,,Clear,360,2014-02-28 05:53:00
1:53 AM,12.0,-6.0,44,30.25,10.0,NNW,10.4,-,N/A,,Clear,340,2014-02-28 06:53:00
2:53 AM,10.9,-6.0,47,30.26,10.0,North,8.1,-,N/A,,Clear,350,2014-02-28 07:53:00
3:53 AM,10.0,-6.0,48,30.28,10.0,NNW,6.9,-,N/A,,Clear,330,2014-02-28 08:53:00
4:53 AM,9.0,-7.1,48,30.31,10.0,NNW,5.8,-,N/A,,Clear,330,2014-02-28 09:53:00
5:53 AM,9.0,-7.1,48,30.34,10.0,Calm,Calm,-,N/A,,Clear,0,2014-02-28 10:53:00
6:53 AM,8.1,-7.1,50,30.37,10.0,Calm,Calm,-,N/A,,Clear,0,2014-02-28 11:53:00
7:53 AM,10.9,-6.0,47,30.40,10.0,NNW,3.5,-,N/A,,Clear,330,2014-02-28 12:53:00
8:53 AM,12.9,-8.0,39,30.43,10.0,Calm,Calm,-,N/A,,Clear,0,2014-02-28 13:53:00
9:53 AM,16.0,-9.0,32,30.44,10.0,Variable,4.6,-,N/A,,Clear,0,2014-02-28 14:53:00
10:53 AM,17.1,-9.0,31,30.44,10.0,WSW,5.8,-,N/A,,Clear,240,2014-02-28 15:53:00
11:53 AM,19.9,-9.0,27,30.42,10.0,North,5.8,-,N/A,,Clear,360,2014-02-28 16:53:00
12:53 PM,21.0,-8.0,28,30.39,10.0,Variable,4.6,-,N/A,,Clear,0,2014-02-28 17:53:00
1:53 PM,24.1,-8.0,24,30.36,10.0,South,5.8,-,N/A,,Clear,190,2014-02-28 18:53:00
2:53 PM,26.1,-9.0,21,30.36,10.0,SW,4.6,-,N/A,,Clear,220,2014-02-28 19:53:00
3:53 PM,27.0,-9.0,21,30.35,10.0,North,3.5,-,N/A,,Clear,360,2014-02-28 20:53:00
4:53 PM,27.0,-6.0,24,30.35,10.0,Calm,Calm,-,N/A,,Clear,0,2014-02-28 21:53:00
5:53 PM,25.0,-2.9,30,30.34,10.0,Calm,Calm,-,N/A,,Clear,0,2014-02-28 22:53:00
6:53 PM,24.1,-2.9,31,30.35,10.0,East,3.5,-,N/A,,Clear,90,2014-02-28 23:53:00
7:53 PM,21.9,-2.0,35,30.35,10.0,East,3.5,-,N/A,,Clear,90,2014-03-01 00:53:00
8:53 PM,21.9,-2.9,34,30.34,10.0,ENE,3.5,-,N/A,,Clear,60,2014-03-01 01:53:00
9:53 PM,19.9,-0.0,42,30.35,10.0,Calm,Calm,-,N/A,,Clear,0,2014-03-01 02:53:00
10:53 PM,19.9,-0.0,42,30.36,10.0,Calm,Calm,-,N/A,,Clear,0,2014-03-01 03:53:00
11:53 PM,19.0,1.9,47,30.36,10.0,Calm,Calm,-,N/A,,Clear,0,2014-03-01 04:53:00